Newton Falls, Ohio
Current Conditions -  °F | °C
As of 9:21 AM on Saturday 22 Nov 2014 (Local Time) from KPOV Reporting Station
Moderate Rain Moderate Rain  
Wind Chill: 25°   Ceiling: 1000
Heat Index: 31°   Visibility: 2.5mi
Dew Point: 25°   Wind: 6mph
Humidity: 78%   Direction: 200°SSW
Pressure: 30.22"   Gusts: NA
Location:  41.19°N, 80.98°W
Report Text: KPOV 221421Z AUTO 20005KT 2 1/2SM RA OVC010 M01/M04 A3022 RMK AO2 T10071041
Loading
Personal Weather Stations






























Interactive Weather Map New forecast layout! Learn more

10-Day Weather Forecast

Advertisements
Track Severe Weather on mobile